Time;durP1;ratioP1;P1;durP2;ratioP2;P2;SDS_P1;SDS_P2;PMS_P1;PMS_P2;Temp;Humidity;BMP_temperature;BMP_pressure;BME280_temperature;BME280_humidity;BME280_pressure;Samples;Min_cycle;Max_cycle;Signal;HPM_P1;HPM_P2
2022/07/24 00:01:52;;;;;;;28.00;24.48;;;;;;;19.56;67.34;98716.22;4989777;28;20501;-78
2022/07/24 00:04:18;;;;;;;27.10;24.30;;;;;;;19.55;68.09;98724.53;4973903;28;20050;-78
2022/07/24 00:06:44;;;;;;;27.55;24.23;;;;;;;19.49;68.23;98718.03;4973629;28;20043;-78
2022/07/24 00:09:10;;;;;;;33.03;25.42;;;;;;;19.52;67.77;98719.50;4973564;28;20422;-79
2022/07/24 00:11:36;;;;;;;31.15;25.77;;;;;;;19.52;68.09;98733.06;4973335;28;20097;-79
2022/07/24 00:14:02;;;;;;;29.98;25.83;;;;;;;19.44;68.09;98725.91;4973467;28;20125;-78
2022/07/24 00:16:27;;;;;;;29.20;25.75;;;;;;;19.38;68.72;98724.81;4973345;28;20050;-79
2022/07/24 00:18:53;;;;;;;30.92;26.33;;;;;;;19.42;68.36;98727.97;4973215;28;20398;-79
2022/07/24 00:21:19;;;;;;;27.33;24.67;;;;;;;19.38;68.12;98715.84;4988934;28;20086;-78
2022/07/24 00:23:45;;;;;;;28.83;25.73;;;;;;;19.36;68.11;98717.91;4957134;28;20093;-79
2022/07/24 00:26:12;;;;;;;30.02;25.45;;;;;;;19.25;68.19;98710.28;4974164;28;20058;-79
2022/07/24 00:28:38;;;;;;;30.13;26.67;;;;;;;19.27;68.39;98729.91;4973180;28;20047;-79
2022/07/24 00:31:05;;;;;;;28.42;25.50;;;;;;;19.19;68.42;98708.38;4973162;28;20042;-78
2022/07/24 00:33:31;;;;;;;34.75;27.75;;;;;;;19.22;68.46;98737.75;4973183;28;20110;-78
2022/07/24 00:35:57;;;;;;;29.30;26.17;;;;;;;19.17;68.51;98728.34;4973147;28;20043;-78
2022/07/24 00:38:22;;;;;;;31.00;27.75;;;;;;;19.13;68.63;98734.34;4974295;28;20039;-77
2022/07/24 00:40:48;;;;;;;30.25;26.95;;;;;;;18.97;69.19;98735.44;4972734;28;20430;-79
2022/07/24 00:43:16;;;;;;;29.00;26.00;;;;;;;18.90;69.22;98734.53;4956898;28;20043;-79
2022/07/24 00:45:42;;;;;;;29.50;25.95;;;;;;;18.75;69.55;98737.25;4972992;28;20045;-77
2022/07/24 00:48:08;;;;;;;36.53;27.95;;;;;;;18.73;69.88;98747.47;4989159;28;20051;-77
2022/07/24 00:50:34;;;;;;;33.65;30.35;;;;;;;18.63;70.47;98739.59;4972890;28;20057;-77
2022/07/24 00:53:00;;;;;;;33.88;30.65;;;;;;;18.71;70.46;98744.09;4956855;28;20050;-78
2022/07/24 00:55:27;;;;;;;39.00;35.10;;;;;;;18.66;70.32;98738.38;4988824;28;20047;-78
2022/07/24 00:57:53;;;;;;;39.28;35.28;;;;;;;18.68;70.70;98742.56;4974357;28;20046;-77
2022/07/24 01:00:21;;;;;;;43.95;38.03;;;;;;;18.66;70.60;98747.34;4957019;28;20039;-79
2022/07/24 01:02:49;;;;;;;46.47;41.03;;;;;;;18.69;70.57;98744.25;4956825;28;20039;-79
2022/07/24 01:05:15;;;;;;;48.92;43.83;;;;;;;18.64;71.33;98752.09;4956798;28;20039;-79
2022/07/24 01:07:40;;;;;;;51.72;46.50;;;;;;;18.59;71.62;98737.47;4989082;28;20047;-78
2022/07/24 01:10:07;;;;;;;53.30;48.00;;;;;;;18.65;71.12;98742.97;4972915;28;20042;-78
2022/07/24 01:12:36;;;;;;;56.03;50.28;;;;;;;18.68;71.62;98744.44;4974441;28;20058;-78
2022/07/24 01:15:02;;;;;;;56.13;50.37;;;;;;;18.67;71.38;98740.88;4973128;28;20051;-77
2022/07/24 01:17:34;;;;;;;53.58;47.88;;;;;;;18.68;71.63;98745.25;4972794;28;20042;-78
2022/07/24 01:20:02;;;;;;;54.47;46.45;;;;;;;18.69;71.97;98757.78;4973016;28;20109;-79
2022/07/24 01:22:28;;;;;;;53.00;47.30;;;;;;;18.72;71.88;98747.63;4956503;28;20102;-78
2022/07/24 01:24:55;;;;;;;53.55;48.15;;;;;;;18.61;71.87;98735.38;4956884;28;20047;-78
2022/07/24 01:27:24;;;;;;;53.92;48.33;;;;;;;18.71;72.05;98756.78;4972316;28;20059;-78
2022/07/24 01:29:51;;;;;;;54.42;48.88;;;;;;;18.63;71.99;98745.00;4956426;28;20054;-79
2022/07/24 01:32:17;;;;;;;52.55;47.33;;;;;;;18.72;72.56;98758.47;4958111;28;20070;-79
2022/07/24 01:34:43;;;;;;;59.97;48.20;;;;;;;18.67;72.41;98743.59;4977658;28;20077;-79
2022/07/24 01:37:09;;;;;;;63.85;57.05;;;;;;;18.77;72.23;98761.44;4976568;28;20085;-81
2022/07/24 01:39:35;;;;;;;68.03;60.95;;;;;;;18.83;72.16;98766.94;4976210;28;20565;-79
2022/07/24 01:42:01;;;;;;;71.13;63.33;;;;;;;18.78;72.22;98763.13;4976490;28;20046;-80
2022/07/24 01:44:27;;;;;;;73.35;65.65;;;;;;;18.79;72.30;98760.22;4992476;28;20050;-78
2022/07/24 01:46:53;;;;;;;69.57;61.45;;;;;;;18.87;71.88;98767.41;4976220;28;20116;-80
2022/07/24 01:49:19;;;;;;;68.60;56.80;;;;;;;18.94;71.46;98757.47;4975974;28;20081;-81
2022/07/24 01:51:45;;;;;;;59.60;52.33;;;;;;;18.87;71.75;98753.84;4976236;28;20097;-78
2022/07/24 01:54:11;;;;;;;56.78;47.45;;;;;;;18.89;72.23;98759.94;4976121;28;20046;-79
2022/07/24 01:56:37;;;;;;;51.90;44.97;;;;;;;18.88;72.11;98763.66;4959681;28;20039;-79
2022/07/24 01:59:03;;;;;;;54.65;41.28;;;;;;;18.91;72.19;98760.56;4992028;28;20054;-78
2022/07/24 02:01:31;;;;;;;45.08;40.10;;;;;;;19.01;71.89;98771.94;4959718;28;20042;-79
2022/07/24 02:04:01;;;;;;;51.85;40.45;;;;;;;19.03;72.25;98778.03;4975851;28;20043;-78
2022/07/24 02:06:27;;;;;;;54.78;46.53;;;;;;;19.01;71.94;98758.41;4975944;28;20053;-78
2022/07/24 02:08:53;;;;;;;59.90;52.90;;;;;;;19.22;71.59;98764.88;4976964;28;20042;-77
2022/07/24 02:11:19;;;;;;;67.88;57.72;;;;;;;19.20;71.61;98761.53;4976891;28;20038;-78
2022/07/24 02:13:45;;;;;;;69.38;59.72;;;;;;;19.23;71.55;98770.09;4992002;28;20077;-78
2022/07/24 02:16:11;;;;;;;72.18;62.78;;;;;;;19.33;71.28;98764.34;4991580;28;20120;-79
2022/07/24 02:18:37;;;;;;;67.88;60.70;;;;;;;19.42;71.12;98763.22;4959323;28;20050;-79
2022/07/24 02:21:03;;;;;;;68.20;60.75;;;;;;;19.47;71.20;98758.03;4959953;28;20085;-80
2022/07/24 02:23:28;;;;;;;71.80;61.47;;;;;;;19.52;71.03;98761.03;4975485;28;20411;-81
2022/07/24 02:25:54;;;;;;;63.03;55.78;;;;;;;19.59;71.05;98767.31;4976516;28;20069;-80
2022/07/24 02:28:20;;;;;;;61.35;54.65;;;;;;;19.57;71.33;98755.84;4975543;28;20508;-80
2022/07/24 02:30:46;;;;;;;63.83;53.70;;;;;;;19.72;70.74;98765.81;4975434;28;20136;-78
2022/07/24 02:33:12;;;;;;;66.00;53.67;;;;;;;19.79;70.15;98761.28;4975213;28;20073;-79
2022/07/24 02:35:38;;;;;;;65.80;48.65;;;;;;;19.85;70.52;98765.91;4975423;28;20082;-81
2022/07/24 02:38:04;;;;;;;69.10;49.30;;;;;;;19.99;70.37;98761.44;4975278;28;20046;-80
2022/07/24 02:40:31;;;;;;;55.05;48.17;;;;;;;20.17;69.76;98772.63;4958315;28;20053;-82
2022/07/24 02:42:57;;;;;;;55.97;46.95;;;;;;;20.34;69.35;98767.72;4974857;28;20041;-80
2022/07/24 02:45:23;;;;;;;53.67;45.80;;;;;;;20.46;69.01;98766.13;4974612;28;20039;-79
2022/07/24 02:47:52;;;;;;;56.00;43.63;;;;;;;20.56;68.52;98769.34;4976207;28;20434;-77
2022/07/24 02:50:19;;;;;;;53.42;43.08;;;;;;;20.60;68.41;98762.47;4976509;28;20046;-78
2022/07/24 02:52:45;;;;;;;39.90;35.33;;;;;;;20.72;68.55;98767.31;4976107;28;20089;-90
2022/07/24 02:55:12;;;;;;;39.85;33.60;;;;;;;20.82;68.20;98770.50;4960118;28;20043;-83
2022/07/24 02:57:37;;;;;;;36.28;31.50;;;;;;;20.89;67.94;98768.66;4991453;28;20399;-79
2022/07/24 03:00:07;;;;;;;38.75;29.90;;;;;;;21.00;68.02;98767.25;4975024;28;20073;-81
2022/07/24 03:02:33;;;;;;;31.33;24.52;;;;;;;21.03;67.64;98764.94;4975987;28;20054;-80
2022/07/24 03:04:59;;;;;;;29.70;24.73;;;;;;;21.08;67.38;98773.31;4990724;28;20548;-87
2022/07/24 03:07:25;;;;;;;29.05;23.30;;;;;;;21.23;67.23;98772.31;4958590;28;20066;-81
2022/07/24 03:09:51;;;;;;;31.02;21.83;;;;;;;21.24;67.25;98772.09;4975881;28;20122;-78
2022/07/24 03:12:17;;;;;;;27.83;21.27;;;;;;;21.34;66.92;98769.03;4990796;28;20053;-78
2022/07/24 03:14:43;;;;;;;28.08;20.88;;;;;;;21.44;66.43;98772.19;4990799;28;20043;-82
2022/07/24 03:17:12;;;;;;;23.38;20.67;;;;;;;21.51;66.60;98774.91;4942301;28;20137;-77
2022/07/24 03:19:37;;;;;;;25.63;19.13;;;;;;;21.52;66.36;98772.00;4975845;28;20043;-81
2022/07/24 03:22:03;;;;;;;32.13;19.40;;;;;;;21.53;66.01;98770.94;4974407;28;20059;-79
2022/07/24 03:24:29;;;;;;;26.58;19.08;;;;;;;21.66;65.79;98763.84;4990713;28;20062;-81
2022/07/24 03:26:55;;;;;;;20.50;17.63;;;;;;;21.77;65.21;98757.78;4990465;28;20054;-80
2022/07/24 03:29:21;;;;;;;20.30;17.17;;;;;;;21.86;64.66;98769.31;4975525;28;20046;-79
2022/07/24 03:31:47;;;;;;;24.75;17.15;;;;;;;21.82;64.91;98768.88;4991327;28;20502;-80
2022/07/24 03:34:13;;;;;;;31.63;17.70;;;;;;;22.00;64.89;98769.09;4975820;28;20050;-78
2022/07/24 03:36:39;;;;;;;22.42;17.13;;;;;;;22.04;64.36;98769.47;4975656;28;20139;-77
2022/07/24 03:39:05;;;;;;;26.48;16.58;;;;;;;22.11;63.61;98780.38;4975133;28;20558;-78
2022/07/24 03:41:31;;;;;;;22.50;16.20;;;;;;;22.26;63.39;98781.84;4976078;28;20046;-83
2022/07/24 03:43:58;;;;;;;28.30;17.08;;;;;;;22.34;63.09;98778.09;4942544;28;20093;-83
2022/07/24 03:46:24;;;;;;;23.85;16.38;;;;;;;22.43;62.81;98782.25;4975706;28;20089;-78
2022/07/24 03:48:50;;;;;;;21.10;17.42;;;;;;;22.60;62.76;98782.59;4990219;28;20039;-82
2022/07/24 03:51:15;;;;;;;23.80;16.42;;;;;;;22.72;61.73;98782.81;4957853;28;20061;-79
2022/07/24 03:53:41;;;;;;;23.27;16.95;;;;;;;22.63;61.70;98775.91;4973628;28;20050;-78
2022/07/24 03:56:08;;;;;;;22.38;16.98;;;;;;;22.73;61.49;98776.28;4972983;28;20054;-78
2022/07/24 03:58:35;;;;;;;31.40;17.70;;;;;;;22.77;61.29;98778.38;4973619;28;20410;-77
2022/07/24 04:01:01;;;;;;;30.58;17.92;;;;;;;22.95;60.77;98774.97;4973530;28;20402;-77
2022/07/24 04:03:26;;;;;;;23.50;17.70;;;;;;;23.08;60.60;98779.53;4990149;28;20417;-78
2022/07/24 04:05:52;;;;;;;35.05;17.73;;;;;;;23.02;60.08;98778.53;4990037;28;20129;-77
2022/07/24 04:08:18;;;;;;;21.88;16.60;;;;;;;23.31;60.22;98776.25;4973672;28;20046;-78
2022/07/24 04:10:45;;;;;;;31.02;17.60;;;;;;;23.43;59.27;98771.78;4957237;28;20043;-77
2022/07/24 04:13:11;;;;;;;31.88;17.75;;;;;;;23.50;59.14;98778.03;4973319;28;20375;-78
2022/07/24 04:15:36;;;;;;;30.08;18.15;;;;;;;23.55;58.57;98774.66;4973167;28;20494;-79
2022/07/24 04:18:02;;;;;;;32.00;16.80;;;;;;;23.72;58.38;98780.44;4973637;28;20050;-79
2022/07/24 04:20:28;;;;;;;28.23;17.15;;;;;;;23.75;58.08;98777.25;4957034;28;20058;-78
2022/07/24 04:22:54;;;;;;;19.92;16.15;;;;;;;23.73;57.24;98768.44;4973178;28;20047;-78
2022/07/24 04:25:20;;;;;;;25.13;15.73;;;;;;;23.87;57.02;98772.75;4957219;28;20410;-78
2022/07/24 04:27:47;;;;;;;25.50;15.25;;;;;;;23.89;56.94;98775.28;4973011;28;20564;-78
2022/07/24 04:30:13;;;;;;;24.27;14.60;;;;;;;23.86;56.86;98765.63;4973664;28;20414;-79
2022/07/24 04:32:39;;;;;;;25.33;14.10;;;;;;;24.07;56.56;98764.41;4973179;28;20047;-77
2022/07/24 04:35:06;;;;;;;19.98;12.50;;;;;;;24.14;55.50;98767.06;4973033;28;20129;-77
2022/07/24 04:37:32;;;;;;;19.20;12.65;;;;;;;24.28;54.56;98765.03;4972937;28;20490;-77
2022/07/24 04:39:59;;;;;;;20.58;12.07;;;;;;;24.24;54.12;98761.91;4972603;28;20039;-79
2022/07/24 04:42:25;;;;;;;20.23;12.30;;;;;;;24.35;54.08;98769.38;4972838;28;20057;-78
2022/07/24 04:44:50;;;;;;;19.02;12.77;;;;;;;24.55;53.64;98763.72;4989418;28;20085;-78
2022/07/24 04:47:17;;;;;;;21.67;12.05;;;;;;;24.80;52.84;98766.38;4988777;28;20039;-78
2022/07/24 04:49:42;;;;;;;23.08;13.07;;;;;;;24.99;52.46;98761.72;4973690;28;20414;-78
2022/07/24 04:52:08;;;;;;;16.73;10.75;;;;;;;24.99;51.56;98747.22;4973887;28;20043;-77
2022/07/24 04:54:34;;;;;;;21.70;11.20;;;;;;;25.10;51.82;98755.50;4972770;28;20038;-77
2022/07/24 04:57:00;;;;;;;31.30;11.43;;;;;;;25.23;50.50;98759.13;4972633;28;20498;-77
2022/07/24 04:59:26;;;;;;;29.10;10.30;;;;;;;25.19;50.56;98750.53;4973902;28;20130;-77
2022/07/24 05:01:51;;;;;;;28.80;10.80;;;;;;;25.21;50.29;98751.16;4973040;28;20387;-77
2022/07/24 05:04:17;;;;;;;32.03;11.43;;;;;;;25.25;50.03;98746.91;4972775;28;20050;-79
2022/07/24 05:06:46;;;;;;;34.75;10.23;;;;;;;25.58;49.08;98751.06;4941524;28;20483;-81
2022/07/24 05:09:12;;;;;;;43.97;10.38;;;;;;;25.74;48.12;98739.41;4978112;28;20045;-78
2022/07/24 05:11:37;;;;;;;30.88;10.38;;;;;;;25.98;48.31;98750.41;4977865;28;20081;-79
2022/07/24 05:14:04;;;;;;;34.35;10.68;;;;;;;26.18;48.16;98764.59;4977806;28;20446;-79
2022/07/24 05:16:29;;;;;;;24.73;9.68;;;;;;;26.21;45.84;98750.41;4976921;28;20105;-79
2022/07/24 05:18:55;;;;;;;34.90;9.77;;;;;;;26.31;46.19;98750.66;4944626;28;20094;-78
2022/07/24 05:21:21;;;;;;;34.80;11.27;;;;;;;26.48;46.84;98738.97;4977882;28;20517;-78
2022/07/24 05:23:47;;;;;;;28.13;11.55;;;;;;;26.78;46.23;98747.03;4978012;28;20514;-78
2022/07/24 05:26:13;;;;;;;36.72;14.55;;;;;;;26.98;45.72;98752.94;4977283;28;20139;-78
2022/07/24 05:28:39;;;;;;;33.22;14.80;;;;;;;27.02;44.97;98745.91;4977418;28;20050;-78
2022/07/24 05:31:05;;;;;;;29.38;14.95;;;;;;;27.13;45.16;98746.97;4976642;28;20505;-79
2022/07/24 05:33:31;;;;;;;26.73;12.85;;;;;;;27.24;44.76;98754.31;4976474;28;20042;-78
2022/07/24 05:35:57;;;;;;;28.98;10.73;;;;;;;27.23;42.55;98746.31;4976587;28;20051;-80
2022/07/24 05:38:23;;;;;;;30.40;11.13;;;;;;;27.23;42.26;98752.66;4976092;28;20061;-80
2022/07/24 05:40:49;;;;;;;34.25;10.98;;;;;;;27.09;42.92;98740.28;4975900;28;20046;-81
2022/07/24 05:43:16;;;;;;;33.58;11.07;;;;;;;26.92;43.20;98755.81;4992682;28;20035;-78
2022/07/24 05:45:42;;;;;;;33.97;11.35;;;;;;;26.96;43.50;98754.25;4975781;28;20054;-78
2022/07/24 05:48:08;;;;;;;38.33;12.10;;;;;;;27.20;44.08;98747.66;4977210;28;20051;-79
2022/07/24 05:50:34;;;;;;;26.77;12.40;;;;;;;27.64;43.41;98747.06;4977406;28;20052;-79
2022/07/24 05:53:00;;;;;;;31.95;13.02;;;;;;;27.79;42.23;98739.94;4975880;28;20049;-80
2022/07/24 05:55:26;;;;;;;31.35;12.07;;;;;;;27.50;41.92;98741.91;4977381;28;20047;-78
2022/07/24 05:57:52;;;;;;;34.22;11.30;;;;;;;27.52;42.25;98738.88;4975595;28;20050;-78
2022/07/24 06:00:18;;;;;;;27.52;9.50;;;;;;;27.66;41.84;98750.41;4976072;28;20066;-79
2022/07/24 06:02:46;;;;;;;24.25;8.18;;;;;;;27.66;41.62;98745.72;4977158;28;20042;-79
2022/07/24 06:05:12;;;;;;;21.17;9.48;;;;;;;27.84;42.18;98748.28;4959703;28;20129;-78
2022/07/24 06:07:38;;;;;;;26.30;10.13;;;;;;;28.15;42.09;98743.25;4976674;28;20097;-79
2022/07/24 06:10:05;;;;;;;26.05;8.60;;;;;;;28.41;40.78;98740.94;4975109;28;20046;-78
2022/07/24 06:12:30;;;;;;;23.40;8.10;;;;;;;28.49;39.93;98741.31;4975415;28;20043;-78
2022/07/24 06:14:56;;;;;;;21.25;8.82;;;;;;;28.20;39.16;98743.31;4959445;28;20101;-78
2022/07/24 06:17:22;;;;;;;14.57;9.00;;;;;;;28.18;39.63;98748.25;4959389;28;20097;-78
2022/07/24 06:19:48;;;;;;;17.95;8.15;;;;;;;28.56;40.08;98746.63;4958411;28;20391;-78
2022/07/24 06:22:14;;;;;;;22.98;7.95;;;;;;;28.92;39.23;98741.56;4975103;28;20039;-78
2022/07/24 06:24:40;;;;;;;27.63;9.38;;;;;;;29.10;38.21;98737.69;4959319;28;20137;-78
2022/07/24 06:27:05;;;;;;;20.88;9.50;;;;;;;28.88;38.56;98744.00;4959406;28;20058;-76
2022/07/24 06:29:31;;;;;;;20.38;8.27;;;;;;;28.88;38.77;98737.66;4991455;28;20418;-78
2022/07/24 06:31:57;;;;;;;18.77;7.72;;;;;;;29.04;37.75;98739.56;4976466;28;20097;-79
2022/07/24 06:34:24;;;;;;;20.33;8.48;;;;;;;29.26;38.31;98740.38;4975250;28;20491;-79
2022/07/24 06:36:51;;;;;;;22.67;8.85;;;;;;;29.43;37.58;98736.66;4975946;28;20608;-80
2022/07/24 06:39:17;;;;;;;20.27;8.02;;;;;;;29.63;36.54;98738.81;4976145;28;20094;-79
2022/07/24 06:41:43;;;;;;;12.30;6.10;;;;;;;29.10;34.42;98735.75;4959180;28;20046;-79
2022/07/24 06:44:23;;;;;;;22.40;6.88;;;;;;;29.07;35.68;98739.03;4958510;28;20149;-79
2022/07/24 06:46:50;;;;;;;13.10;7.20;;;;;;;29.26;36.12;98736.75;4958706;28;20066;-79
2022/07/24 06:49:16;;;;;;;21.00;7.30;;;;;;;29.07;35.94;98725.28;4974566;28;20042;-79
2022/07/24 06:51:42;;;;;;;15.95;6.90;;;;;;;29.10;35.82;98732.19;4976343;28;20054;-79
2022/07/24 06:54:08;;;;;;;20.27;7.35;;;;;;;29.40;36.08;98738.00;4976261;28;20418;-80
2022/07/24 06:56:33;;;;;;;21.90;8.00;;;;;;;29.41;35.10;98736.94;4990686;28;20055;-79
2022/07/24 06:58:59;;;;;;;16.75;7.75;;;;;;;29.16;35.23;98726.50;4990716;28;20054;-79
2022/07/24 07:01:26;;;;;;;13.55;6.18;;;;;;;29.33;34.58;98731.06;4975838;28;20478;-80
2022/07/24 07:03:53;;;;;;;13.07;6.60;;;;;;;29.66;34.65;98736.38;4974469;28;20061;-80
2022/07/24 07:06:19;;;;;;;17.92;6.40;;;;;;;30.09;34.86;98731.75;4974818;28;20148;-79
2022/07/24 07:08:45;;;;;;;16.65;6.55;;;;;;;30.18;33.91;98734.88;4975555;28;20184;-79
2022/07/24 07:11:11;;;;;;;12.57;5.88;;;;;;;29.84;34.45;98737.06;4975506;28;20126;-79
2022/07/24 07:13:37;;;;;;;16.17;6.30;;;;;;;29.88;34.98;98732.69;4974401;28;20048;-78
2022/07/24 07:16:03;;;;;;;15.57;6.07;;;;;;;30.03;34.79;98723.72;4957685;28;20038;-79
2022/07/24 07:18:29;;;;;;;12.45;6.22;;;;;;;29.91;34.58;98726.66;4975287;28;20453;-79
2022/07/24 07:20:55;;;;;;;16.88;5.70;;;;;;;29.93;34.72;98727.22;4975457;28;20051;-79
2022/07/24 07:23:26;;;;;;;12.02;5.63;;;;;;;30.21;34.74;98726.91;4958188;28;20070;-78
2022/07/24 07:25:53;;;;;;;13.48;5.30;;;;;;;30.56;33.50;98733.72;4990398;28;20059;-79
2022/07/24 07:28:19;;;;;;;21.38;5.15;;;;;;;30.87;33.27;98729.19;4975200;28;20378;-80
2022/07/24 07:30:45;;;;;;;10.68;4.75;;;;;;;31.25;32.23;98729.84;4973803;28;20506;-81
2022/07/24 07:33:11;;;;;;;19.38;5.28;;;;;;;31.63;32.10;98731.34;4974012;28;20081;-81
2022/07/24 07:35:37;;;;;;;7.38;5.25;;;;;;;31.99;31.28;98728.59;4973898;28;20134;-78
2022/07/24 07:38:03;;;;;;;10.35;5.53;;;;;;;32.21;31.15;98725.53;4973877;28;20045;-85
2022/07/24 07:40:32;;;;;;;14.93;6.00;;;;;;;32.39;30.90;98713.06;4975078;28;20090;-82
2022/07/24 07:42:58;;;;;;;9.70;4.82;;;;;;;32.69;30.37;98731.53;4972864;28;20050;-81
2022/07/24 07:45:23;;;;;;;11.60;6.15;;;;;;;31.58;31.12;98712.00;4975124;28;20047;-81
2022/07/24 07:47:49;;;;;;;14.05;6.13;;;;;;;31.48;32.33;98725.78;4972393;28;20054;-83
2022/07/24 07:50:15;;;;;;;15.68;6.30;;;;;;;31.74;32.23;98715.59;4974177;28;20129;-86
2022/07/24 07:52:41;;;;;;;16.90;5.65;;;;;;;32.12;32.35;98727.19;4975853;28;20046;-83
2022/07/24 07:55:07;;;;;;;15.05;5.65;;;;;;;32.03;30.99;98721.41;4974143;28;20145;-81
2022/07/24 07:57:33;;;;;;;13.05;4.70;;;;;;;32.10;30.80;98723.91;4974523;28;20038;-80
2022/07/24 07:59:59;;;;;;;13.40;4.63;;;;;;;32.33;30.81;98719.69;4973236;28;20123;-79
2022/07/24 08:02:24;;;;;;;12.23;4.10;;;;;;;32.47;29.49;98718.03;4974043;28;20146;-80
2022/07/24 08:04:53;;;;;;;6.45;3.75;;;;;;;32.32;29.36;98727.19;4974399;28;20434;-78
2022/07/24 08:07:19;;;;;;;9.95;4.10;;;;;;;32.51;29.10;98718.31;4956985;28;20132;-77
2022/07/24 08:09:45;;;;;;;12.18;4.13;;;;;;;32.30;29.37;98718.31;4989007;28;20133;-78
2022/07/24 08:12:11;;;;;;;10.63;3.85;;;;;;;32.61;29.40;98724.66;4957000;28;20406;-77
2022/07/24 08:14:37;;;;;;;10.30;3.92;;;;;;;32.93;29.34;98715.09;4972980;28;20124;-77
2022/07/24 08:17:03;;;;;;;11.00;3.95;;;;;;;33.09;28.21;98716.69;4972257;28;20097;-78
2022/07/24 08:19:29;;;;;;;11.02;3.95;;;;;;;33.07;28.23;98716.16;4974005;28;20042;-80
2022/07/24 08:21:55;;;;;;;10.13;3.92;;;;;;;33.15;28.22;98711.13;4973173;28;20405;-79
2022/07/24 08:24:21;;;;;;;12.52;3.97;;;;;;;33.37;28.20;98706.00;4974839;28;20050;-83
2022/07/24 08:26:48;;;;;;;11.00;4.38;;;;;;;32.83;28.12;98699.34;4973902;28;20474;-79
2022/07/24 08:29:14;;;;;;;10.30;4.72;;;;;;;32.73;28.68;98709.66;4972740;28;20069;-79
2022/07/24 08:31:40;;;;;;;16.65;4.60;;;;;;;33.16;28.78;98702.53;4972948;28;20486;-79
2022/07/24 08:34:06;;;;;;;10.75;4.50;;;;;;;33.66;28.41;98702.47;4973760;28;20050;-79
2022/07/24 08:36:32;;;;;;;9.73;4.00;;;;;;;33.88;27.61;98702.03;4973775;28;20042;-78
2022/07/24 08:38:58;;;;;;;5.93;3.45;;;;;;;34.05;26.91;98703.28;4972783;28;20148;-79
2022/07/24 08:41:24;;;;;;;10.77;4.35;;;;;;;34.03;26.64;98694.41;4972076;28;20039;-80
2022/07/24 08:43:49;;;;;;;8.48;4.40;;;;;;;34.01;26.81;98699.44;4972528;28;20049;-78
2022/07/24 08:46:16;;;;;;;6.60;4.03;;;;;;;34.17;27.48;98704.84;4972011;28;20035;-79
2022/07/24 08:48:46;;;;;;;11.10;4.45;;;;;;;34.45;26.56;98698.41;4973186;28;20129;-81
2022/07/24 08:51:16;;;;;;;7.15;3.38;;;;;;;34.61;26.15;98699.09;4988859;28;20047;-82
2022/07/24 08:53:43;;;;;;;7.00;3.63;;;;;;;34.78;25.39;98693.03;4971948;28;20042;-80
2022/07/24 08:56:10;;;;;;;7.15;3.20;;;;;;;34.27;24.74;98688.91;4988571;28;20043;-80
2022/07/24 08:58:40;;;;;;;12.20;3.53;;;;;;;34.22;25.06;98697.28;4972175;28;20055;-78
2022/07/24 09:01:07;;;;;;;7.78;3.10;;;;;;;34.41;25.21;98690.97;4971949;28;20071;-79
2022/07/24 09:03:44;;;;;;;9.60;3.88;;;;;;;34.73;25.26;98690.34;4956302;28;20043;-78
2022/07/24 09:06:11;;;;;;;5.57;3.03;;;;;;;34.60;25.25;98685.50;4972356;28;20045;-77
2022/07/24 09:08:42;;;;;;;7.65;3.17;;;;;;;34.82;25.68;98694.09;4973321;28;20136;-78
2022/07/24 09:11:09;;;;;;;6.40;3.20;;;;;;;35.12;25.71;98686.50;4956323;28;20137;-78
2022/07/24 09:16:22;;;;;;;7.05;3.45;;;;;;;34.25;25.45;98684.78;4973302;28;20070;-78
2022/07/24 09:19:02;;;;;;;5.32;3.03;;;;;;;34.66;25.72;98685.16;4973883;28;20521;-78
2022/07/24 09:21:32;;;;;;;4.90;3.30;;;;;;;35.19;25.07;98689.75;4964393;28;20125;-78
2022/07/24 09:24:02;;;;;;;8.40;3.20;;;;;;;35.56;24.89;98686.16;4972628;28;20066;-79
2022/07/24 09:26:47;;;;;;;7.35;3.30;;;;;;;35.76;24.77;98690.53;4973625;28;20047;-79
2022/07/24 09:29:15;;;;;;;6.50;3.25;;;;;;;35.68;23.95;98685.66;4973083;28;20046;-78
2022/07/24 09:31:51;;;;;;;10.85;3.60;;;;;;;35.51;24.09;98691.78;4972435;28;20051;-80
2022/07/24 09:34:17;;;;;;;7.38;3.50;;;;;;;35.62;24.03;98689.66;4957017;28;20043;-79
2022/07/24 09:36:55;;;;;;;4.72;3.40;;;;;;;35.85;24.04;98677.59;4988954;28;20134;-80
2022/07/24 09:39:23;;;;;;;7.28;3.55;;;;;;;35.91;23.97;98681.91;4974275;28;20039;-80
2022/07/24 09:41:53;;;;;;;7.43;3.33;;;;;;;36.08;23.42;98680.56;4974328;28;20138;-80
2022/07/24 09:44:20;;;;;;;7.15;3.50;;;;;;;36.14;23.60;98680.13;4973254;28;20053;-80
2022/07/24 09:47:00;;;;;;;10.75;3.58;;;;;;;36.38;24.20;98679.97;4973330;28;20061;-79
2022/07/24 09:49:27;;;;;;;10.63;3.55;;;;;;;36.67;23.67;98671.34;4970796;28;20121;-80
2022/07/24 09:52:05;;;;;;;9.20;4.18;;;;;;;37.05;23.32;98665.53;4956358;28;20509;-79
2022/07/24 09:54:34;;;;;;;6.78;3.90;;;;;;;37.09;22.88;98660.97;4976050;28;20055;-79
2022/07/24 09:57:28;;;;;;;8.23;3.08;;;;;;;37.41;22.76;98668.31;4972171;28;20073;-79
2022/07/24 09:59:58;;;;;;;11.60;3.10;;;;;;;37.52;22.80;98670.84;4956568;29;20043;-79
2022/07/24 10:02:27;;;;;;;9.70;3.58;;;;;;;37.66;22.70;98677.19;4957653;29;20047;-79
2022/07/24 10:04:53;;;;;;;13.02;3.10;;;;;;;37.59;22.43;98665.66;4957798;28;20490;-79
2022/07/24 10:07:21;;;;;;;8.38;3.15;;;;;;;37.96;22.07;98667.25;4972831;28;20070;-78
2022/07/24 10:09:50;;;;;;;9.10;3.10;;;;;;;37.53;21.70;98664.13;4957814;28;20395;-79
2022/07/24 10:12:23;;;;;;;8.23;3.40;;;;;;;37.50;21.88;98659.19;4940331;29;20062;-79
2022/07/24 10:14:51;;;;;;;14.45;3.67;;;;;;;37.74;22.23;98651.31;4956543;29;20051;-81
2022/07/24 10:17:18;;;;;;;9.80;3.35;;;;;;;38.29;21.59;98667.72;4940287;29;20036;-78
2022/07/24 10:19:49;;;;;;;6.72;2.97;;;;;;;38.86;21.00;98670.59;4955988;29;20043;-79
2022/07/24 10:22:17;;;;;;;11.98;3.45;;;;;;;39.13;21.13;98671.44;4972456;28;20047;-80
2022/07/24 10:25:04;;;;;;;12.15;3.55;;;;;;;38.84;21.30;98670.06;4972287;28;20043;-81
2022/07/24 10:27:33;;;;;;;6.57;3.08;;;;;;;38.82;21.06;98672.41;4955900;29;20098;-79
2022/07/24 10:30:04;;;;;;;8.27;3.10;;;;;;;38.42;21.32;98656.81;4955833;29;20097;-79
2022/07/24 10:32:31;;;;;;;8.88;3.40;;;;;;;38.54;21.52;98654.19;4940523;29;20047;-79
2022/07/24 10:35:05;;;;;;;14.43;3.58;;;;;;;38.96;21.19;98663.03;4940433;29;20380;-79
2022/07/24 10:37:49;;;;;;;9.70;3.38;;;;;;;38.95;20.82;98661.38;4972200;28;20052;-81
2022/07/24 10:40:39;;;;;;;8.18;3.20;;;;;;;38.92;21.08;98665.66;4956867;28;20047;-80
2022/07/24 10:43:05;;;;;;;8.68;3.15;;;;;;;38.94;21.19;98666.16;4957178;28;20499;-80
2022/07/24 10:45:32;;;;;;;4.75;3.03;;;;;;;39.10;20.67;98644.16;4972138;28;20043;-79
2022/07/24 10:48:20;;;;;;;6.43;3.25;;;;;;;39.61;20.68;98648.09;4971727;28;20074;-80
2022/07/24 10:51:07;;;;;;;5.80;2.95;;;;;;;39.90;19.74;98646.56;4971817;28;20046;-80
2022/07/24 10:53:39;;;;;;;10.25;3.60;;;;;;;39.55;20.16;98652.22;4957230;28;20058;-79
2022/07/24 10:56:23;;;;;;;6.70;3.10;;;;;;;39.67;20.03;98652.34;4971745;28;20082;-79
2022/07/24 10:58:55;;;;;;;10.40;3.22;;;;;;;39.49;19.83;98628.34;4971518;28;20047;-79
2022/07/24 11:01:38;;;;;;;8.30;3.17;;;;;;;39.48;19.54;98651.91;4971197;28;20414;-79
2022/07/24 11:04:26;;;;;;;11.07;3.00;;;;;;;39.60;19.53;98646.44;4970910;28;20085;-79
2022/07/24 11:06:54;;;;;;;8.80;2.92;;;;;;;39.73;19.63;98645.47;4971832;28;20047;-79
2022/07/24 11:09:22;;;;;;;9.07;3.00;;;;;;;40.30;19.40;98642.34;4955118;28;20141;-79
2022/07/24 11:11:51;;;;;;;6.38;2.90;;;;;;;41.01;19.22;98644.44;4956368;28;20039;-80
2022/07/24 11:14:25;;;;;;;5.60;2.85;;;;;;;40.52;18.89;98632.03;4955190;29;20407;-80
2022/07/24 11:16:51;;;;;;;3.50;2.65;;;;;;;40.97;18.78;98625.81;4938760;29;20054;-78
2022/07/24 11:19:17;;;;;;;7.20;2.70;;;;;;;40.91;18.58;98641.19;4956321;28;20043;-79
2022/07/24 11:21:46;;;;;;;7.13;2.85;;;;;;;41.02;18.43;98636.84;4971171;28;20058;-82
2022/07/24 11:26:52;;;;;;;7.95;3.00;;;;;;;41.02;17.85;98634.06;4954578;29;20585;-79
2022/07/24 11:29:23;;;;;;;5.63;2.63;;;;;;;41.46;17.95;98632.53;4955219;29;20043;-78